sensor_id;sensor_type;location;lat;lon;timestamp;temperature;humidity
8172;DHT22;4127;47.908;10.850;2022-10-12T00:01:20;11.90;99.90
8172;DHT22;4127;47.908;10.850;2022-10-12T00:03:47;12.00;99.90
8172;DHT22;4127;47.908;10.850;2022-10-12T00:06:15;11.80;99.90
8172;DHT22;4127;47.908;10.850;2022-10-12T00:08:43;11.60;99.90
8172;DHT22;4127;47.908;10.850;2022-10-12T00:11:15;11.60;99.90
8172;DHT22;4127;47.908;10.850;2022-10-12T00:13:42;11.70;99.90
8172;DHT22;4127;47.908;10.850;2022-10-12T00:16:10;11.60;99.90
8172;DHT22;4127;47.908;10.850;2022-10-12T00:18:37;11.60;99.90
8172;DHT22;4127;47.908;10.850;2022-10-12T00:21:10;11.80;99.90
8172;DHT22;4127;47.908;10.850;2022-10-12T00:23:38;11.70;99.90
8172;DHT22;4127;47.908;10.850;2022-10-12T00:26:16;11.70;99.90
8172;DHT22;4127;47.908;10.850;2022-10-12T00:28:44;11.80;99.90
8172;DHT22;4127;47.908;10.850;2022-10-12T00:31:17;11.80;99.90
8172;DHT22;4127;47.908;10.850;2022-10-12T00:33:44;11.80;99.90
8172;DHT22;4127;47.908;10.850;2022-10-12T00:36:23;11.90;99.90
8172;DHT22;4127;47.908;10.850;2022-10-12T00:38:51;11.90;99.90
8172;DHT22;4127;47.908;10.850;2022-10-12T00:41:24;12.00;99.90
8172;DHT22;4127;47.908;10.850;2022-10-12T00:43:52;12.00;99.90
8172;DHT22;4127;47.908;10.850;2022-10-12T00:46:29;12.10;99.90
8172;DHT22;4127;47.908;10.850;2022-10-12T00:51:32;12.20;99.90
8172;DHT22;4127;47.908;10.850;2022-10-12T00:54:02;12.20;99.90
8172;DHT22;4127;47.908;10.850;2022-10-12T00:56:34;12.00;99.90
8172;DHT22;4127;47.908;10.850;2022-10-12T00:59:05;11.90;99.90
8172;DHT22;4127;47.908;10.850;2022-10-12T01:01:33;11.80;99.90
8172;DHT22;4127;47.908;10.850;2022-10-12T01:04:02;11.80;99.90
8172;DHT22;4127;47.908;10.850;2022-10-12T01:06:30;11.70;99.90
8172;DHT22;4127;47.908;10.850;2022-10-12T01:08:57;11.70;99.90
8172;DHT22;4127;47.908;10.850;2022-10-12T01:11:24;11.70;99.90
8172;DHT22;4127;47.908;10.850;2022-10-12T01:13:51;11.80;99.90
8172;DHT22;4127;47.908;10.850;2022-10-12T01:21:50;12.00;99.90
8172;DHT22;4127;47.908;10.850;2022-10-12T01:24:38;11.90;99.90
8172;DHT22;4127;47.908;10.850;2022-10-12T01:30:01;11.90;99.90
8172;DHT22;4127;47.908;10.850;2022-10-12T01:35:28;11.70;99.90
8172;DHT22;4127;47.908;10.850;2022-10-12T01:40:47;11.90;99.90
8172;DHT22;4127;47.908;10.850;2022-10-12T01:43:17;12.00;99.90
8172;DHT22;4127;47.908;10.850;2022-10-12T01:45:44;11.90;99.90
8172;DHT22;4127;47.908;10.850;2022-10-12T01:48:10;11.80;99.90
8172;DHT22;4127;47.908;10.850;2022-10-12T01:50:48;12.00;99.90
8172;DHT22;4127;47.908;10.850;2022-10-12T01:53:26;11.90;99.90
8172;DHT22;4127;47.908;10.850;2022-10-12T02:01:22;11.90;99.90
8172;DHT22;4127;47.908;10.850;2022-10-12T02:04:01;11.90;99.90
8172;DHT22;4127;47.908;10.850;2022-10-12T02:06:46;12.00;99.90
8172;DHT22;4127;47.908;10.850;2022-10-12T02:09:23;12.00;99.90
8172;DHT22;4127;47.908;10.850;2022-10-12T02:11:53;12.10;99.90
8172;DHT22;4127;47.908;10.850;2022-10-12T02:14:26;12.20;99.90
8172;DHT22;4127;47.908;10.850;2022-10-12T02:16:58;12.20;99.90
8172;DHT22;4127;47.908;10.850;2022-10-12T02:19:28;12.00;99.90
8172;DHT22;4127;47.908;10.850;2022-10-12T02:22:03;12.00;99.90
8172;DHT22;4127;47.908;10.850;2022-10-12T02:24:32;12.00;99.90
8172;DHT22;4127;47.908;10.850;2022-10-12T02:27:01;11.90;99.90
8172;DHT22;4127;47.908;10.850;2022-10-12T02:29:33;11.90;99.90
8172;DHT22;4127;47.908;10.850;2022-10-12T02:34:34;12.00;99.90
8172;DHT22;4127;47.908;10.850;2022-10-12T02:37:11;12.00;99.90
8172;DHT22;4127;47.908;10.850;2022-10-12T02:39:55;12.00;99.90
8172;DHT22;4127;47.908;10.850;2022-10-12T02:42:35;11.90;99.90
8172;DHT22;4127;47.908;10.850;2022-10-12T02:45:24;12.00;99.90
8172;DHT22;4127;47.908;10.850;2022-10-12T02:47:53;12.20;99.90
8172;DHT22;4127;47.908;10.850;2022-10-12T02:50:22;12.30;99.90
8172;DHT22;4127;47.908;10.850;2022-10-12T02:52:50;12.30;99.90
8172;DHT22;4127;47.908;10.850;2022-10-12T02:55:18;12.40;99.90
8172;DHT22;4127;47.908;10.850;2022-10-12T02:57:45;12.40;99.90
8172;DHT22;4127;47.908;10.850;2022-10-12T03:00:12;12.50;99.90
8172;DHT22;4127;47.908;10.850;2022-10-12T03:02:39;12.50;99.90
8172;DHT22;4127;47.908;10.850;2022-10-12T03:05:06;12.40;99.90
8172;DHT22;4127;47.908;10.850;2022-10-12T03:07:32;12.50;99.90
8172;DHT22;4127;47.908;10.850;2022-10-12T03:09:59;12.50;99.90
8172;DHT22;4127;47.908;10.850;2022-10-12T03:12:26;12.50;99.90
8172;DHT22;4127;47.908;10.850;2022-10-12T03:14:53;12.50;99.90
8172;DHT22;4127;47.908;10.850;2022-10-12T03:17:19;12.50;99.90
8172;DHT22;4127;47.908;10.850;2022-10-12T03:19:46;12.60;99.90
8172;DHT22;4127;47.908;10.850;2022-10-12T03:22:13;12.60;99.90
8172;DHT22;4127;47.908;10.850;2022-10-12T03:24:39;12.50;99.90
8172;DHT22;4127;47.908;10.850;2022-10-12T03:27:06;12.50;99.90
8172;DHT22;4127;47.908;10.850;2022-10-12T03:29:33;12.40;99.90
8172;DHT22;4127;47.908;10.850;2022-10-12T03:31:59;12.50;99.90
8172;DHT22;4127;47.908;10.850;2022-10-12T03:34:26;12.50;99.90
8172;DHT22;4127;47.908;10.850;2022-10-12T03:36:53;12.50;99.90
8172;DHT22;4127;47.908;10.850;2022-10-12T03:39:20;12.60;99.90
8172;DHT22;4127;47.908;10.850;2022-10-12T03:41:46;12.70;99.90
8172;DHT22;4127;47.908;10.850;2022-10-12T03:44:13;12.60;99.90
8172;DHT22;4127;47.908;10.850;2022-10-12T03:46:40;12.60;99.90
8172;DHT22;4127;47.908;10.850;2022-10-12T03:49:06;12.60;99.90
8172;DHT22;4127;47.908;10.850;2022-10-12T03:51:33;12.70;99.90
8172;DHT22;4127;47.908;10.850;2022-10-12T03:54:00;12.70;99.90
8172;DHT22;4127;47.908;10.850;2022-10-12T03:56:27;12.60;99.90
8172;DHT22;4127;47.908;10.850;2022-10-12T03:58:53;12.70;99.90
8172;DHT22;4127;47.908;10.850;2022-10-12T04:01:20;12.70;99.90
8172;DHT22;4127;47.908;10.850;2022-10-12T04:03:47;12.70;99.90
8172;DHT22;4127;47.908;10.850;2022-10-12T04:06:13;12.50;99.90
8172;DHT22;4127;47.908;10.850;2022-10-12T04:08:40;12.30;99.90
8172;DHT22;4127;47.908;10.850;2022-10-12T04:11:07;12.60;99.90
8172;DHT22;4127;47.908;10.850;2022-10-12T04:13:34;12.50;99.90
8172;DHT22;4127;47.908;10.850;2022-10-12T04:16:05;12.60;99.90
8172;DHT22;4127;47.908;10.850;2022-10-12T04:18:32;12.60;99.90
8172;DHT22;4127;47.908;10.850;2022-10-12T04:21:00;12.70;99.90
8172;DHT22;4127;47.908;10.850;2022-10-12T04:23:27;12.60;99.90
8172;DHT22;4127;47.908;10.850;2022-10-12T04:25:54;12.70;99.90
8172;DHT22;4127;47.908;10.850;2022-10-12T04:28:20;12.70;99.90
8172;DHT22;4127;47.908;10.850;2022-10-12T04:30:47;12.50;99.90
8172;DHT22;4127;47.908;10.850;2022-10-12T04:33:14;12.60;99.90
8172;DHT22;4127;47.908;10.850;2022-10-12T04:35:41;12.60;99.90
8172;DHT22;4127;47.908;10.850;2022-10-12T04:38:07;12.60;99.90
8172;DHT22;4127;47.908;10.850;2022-10-12T04:40:34;12.60;99.90
8172;DHT22;4127;47.908;10.850;2022-10-12T04:43:01;12.70;99.90
8172;DHT22;4127;47.908;10.850;2022-10-12T04:45:28;12.70;99.90
8172;DHT22;4127;47.908;10.850;2022-10-12T04:47:54;12.60;99.90
8172;DHT22;4127;47.908;10.850;2022-10-12T04:50:21;12.60;99.90
8172;DHT22;4127;47.908;10.850;2022-10-12T04:52:54;12.60;99.90
8172;DHT22;4127;47.908;10.850;2022-10-12T04:55:21;12.70;99.90
8172;DHT22;4127;47.908;10.850;2022-10-12T04:57:47;12.50;99.90
8172;DHT22;4127;47.908;10.850;2022-10-12T05:00:15;12.60;99.90
8172;DHT22;4127;47.908;10.850;2022-10-12T05:02:42;12.60;99.90
8172;DHT22;4127;47.908;10.850;2022-10-12T05:05:09;12.60;99.90
8172;DHT22;4127;47.908;10.850;2022-10-12T05:07:36;12.60;99.90
8172;DHT22;4127;47.908;10.850;2022-10-12T05:10:04;12.70;99.90
8172;DHT22;4127;47.908;10.850;2022-10-12T05:12:30;12.60;99.90
8172;DHT22;4127;47.908;10.850;2022-10-12T05:14:57;12.70;99.90
8172;DHT22;4127;47.908;10.850;2022-10-12T05:17:24;12.50;99.90
8172;DHT22;4127;47.908;10.850;2022-10-12T05:19:51;12.60;99.90
8172;DHT22;4127;47.908;10.850;2022-10-12T05:22:17;12.40;99.90
8172;DHT22;4127;47.908;10.850;2022-10-12T05:24:44;12.20;99.90
8172;DHT22;4127;47.908;10.850;2022-10-12T05:27:16;12.00;99.90
8172;DHT22;4127;47.908;10.850;2022-10-12T05:29:43;12.10;99.90
8172;DHT22;4127;47.908;10.850;2022-10-12T05:32:10;12.20;99.90
8172;DHT22;4127;47.908;10.850;2022-10-12T05:34:37;12.30;99.90
8172;DHT22;4127;47.908;10.850;2022-10-12T05:37:04;12.20;99.90
8172;DHT22;4127;47.908;10.850;2022-10-12T05:39:31;12.00;99.90
8172;DHT22;4127;47.908;10.850;2022-10-12T05:41:58;12.10;99.90
8172;DHT22;4127;47.908;10.850;2022-10-12T05:44:25;12.00;99.90
8172;DHT22;4127;47.908;10.850;2022-10-12T05:46:51;12.00;99.90
8172;DHT22;4127;47.908;10.850;2022-10-12T05:49:18;12.10;99.90
8172;DHT22;4127;47.908;10.850;2022-10-12T05:51:45;12.20;99.90
8172;DHT22;4127;47.908;10.850;2022-10-12T05:54:12;12.30;99.90
8172;DHT22;4127;47.908;10.850;2022-10-12T05:56:38;12.40;99.90
8172;DHT22;4127;47.908;10.850;2022-10-12T05:59:05;12.50;99.90
8172;DHT22;4127;47.908;10.850;2022-10-12T06:01:32;12.50;99.90
8172;DHT22;4127;47.908;10.850;2022-10-12T06:03:59;12.50;99.90
8172;DHT22;4127;47.908;10.850;2022-10-12T06:06:26;12.50;99.90
8172;DHT22;4127;47.908;10.850;2022-10-12T06:08:52;12.50;99.90
8172;DHT22;4127;47.908;10.850;2022-10-12T06:11:19;12.50;99.90
8172;DHT22;4127;47.908;10.850;2022-10-12T06:13:46;12.50;99.90
8172;DHT22;4127;47.908;10.850;2022-10-12T06:16:13;12.60;99.90
8172;DHT22;4127;47.908;10.850;2022-10-12T06:18:40;12.50;99.90
8172;DHT22;4127;47.908;10.850;2022-10-12T06:21:07;12.60;99.90
8172;DHT22;4127;47.908;10.850;2022-10-12T06:23:53;12.60;99.90
8172;DHT22;4127;47.908;10.850;2022-10-12T06:26:20;12.60;99.90
8172;DHT22;4127;47.908;10.850;2022-10-12T06:28:47;12.60;99.90
8172;DHT22;4127;47.908;10.850;2022-10-12T06:31:14;12.70;99.90
8172;DHT22;4127;47.908;10.850;2022-10-12T06:33:41;12.70;99.90
8172;DHT22;4127;47.908;10.850;2022-10-12T06:36:07;12.60;99.90
8172;DHT22;4127;47.908;10.850;2022-10-12T06:38:34;12.50;99.90
8172;DHT22;4127;47.908;10.850;2022-10-12T06:43:49;12.30;99.90
8172;DHT22;4127;47.908;10.850;2022-10-12T06:46:15;12.30;99.90
8172;DHT22;4127;47.908;10.850;2022-10-12T06:48:42;12.30;99.90
8172;DHT22;4127;47.908;10.850;2022-10-12T06:51:09;12.30;99.90
8172;DHT22;4127;47.908;10.850;2022-10-12T06:53:35;12.40;99.90
8172;DHT22;4127;47.908;10.850;2022-10-12T06:56:10;12.40;99.90
8172;DHT22;4127;47.908;10.850;2022-10-12T06:58:37;12.40;99.90
8172;DHT22;4127;47.908;10.850;2022-10-12T07:01:06;12.50;99.90
8172;DHT22;4127;47.908;10.850;2022-10-12T07:03:33;12.60;99.90
8172;DHT22;4127;47.908;10.850;2022-10-12T07:06:11;12.50;99.90
8172;DHT22;4127;47.908;10.850;2022-10-12T07:08:39;12.60;99.90
8172;DHT22;4127;47.908;10.850;2022-10-12T07:11:09;12.80;99.90
8172;DHT22;4127;47.908;10.850;2022-10-12T07:13:37;12.80;99.90
8172;DHT22;4127;47.908;10.850;2022-10-12T07:16:04;12.70;99.90
8172;DHT22;4127;47.908;10.850;2022-10-12T07:18:31;12.60;99.90
8172;DHT22;4127;47.908;10.850;2022-10-12T07:20:58;12.60;99.90
8172;DHT22;4127;47.908;10.850;2022-10-12T07:23:32;12.60;99.90
8172;DHT22;4127;47.908;10.850;2022-10-12T07:26:00;12.80;99.90
8172;DHT22;4127;47.908;10.850;2022-10-12T07:28:27;12.60;99.90
8172;DHT22;4127;47.908;10.850;2022-10-12T07:30:58;12.60;99.90
8172;DHT22;4127;47.908;10.850;2022-10-12T07:33:25;12.70;99.90
8172;DHT22;4127;47.908;10.850;2022-10-12T07:35:53;12.90;99.90
8172;DHT22;4127;47.908;10.850;2022-10-12T07:38:39;13.00;99.90
8172;DHT22;4127;47.908;10.850;2022-10-12T07:41:10;13.00;99.90
8172;DHT22;4127;47.908;10.850;2022-10-12T07:43:36;13.10;99.90
8172;DHT22;4127;47.908;10.850;2022-10-12T07:46:04;13.00;99.90
8172;DHT22;4127;47.908;10.850;2022-10-12T07:48:32;13.10;99.90
8172;DHT22;4127;47.908;10.850;2022-10-12T07:51:09;13.20;99.90
8172;DHT22;4127;47.908;10.850;2022-10-12T07:53:37;13.20;99.90
8172;DHT22;4127;47.908;10.850;2022-10-12T07:56:06;13.20;99.90
8172;DHT22;4127;47.908;10.850;2022-10-12T07:58:34;13.30;99.90
8172;DHT22;4127;47.908;10.850;2022-10-12T08:01:05;13.30;99.90
8172;DHT22;4127;47.908;10.850;2022-10-12T08:03:32;13.20;99.90
8172;DHT22;4127;47.908;10.850;2022-10-12T08:05:58;13.40;99.90
8172;DHT22;4127;47.908;10.850;2022-10-12T08:08:25;13.30;99.90
8172;DHT22;4127;47.908;10.850;2022-10-12T08:10:52;13.40;99.90
8172;DHT22;4127;47.908;10.850;2022-10-12T08:13:18;13.20;99.90
8172;DHT22;4127;47.908;10.850;2022-10-12T08:15:49;13.20;99.90
8172;DHT22;4127;47.908;10.850;2022-10-12T08:18:15;13.30;99.90
8172;DHT22;4127;47.908;10.850;2022-10-12T08:20:42;13.30;99.90
8172;DHT22;4127;47.908;10.850;2022-10-12T08:23:09;13.30;99.90
8172;DHT22;4127;47.908;10.850;2022-10-12T08:25:36;13.40;99.90
8172;DHT22;4127;47.908;10.850;2022-10-12T08:28:04;13.40;99.90
8172;DHT22;4127;47.908;10.850;2022-10-12T08:30:32;13.60;99.90
8172;DHT22;4127;47.908;10.850;2022-10-12T08:32:59;13.60;99.90
8172;DHT22;4127;47.908;10.850;2022-10-12T08:35:26;13.40;99.90
8172;DHT22;4127;47.908;10.850;2022-10-12T08:37:53;13.30;99.90
8172;DHT22;4127;47.908;10.850;2022-10-12T08:40:29;13.30;99.90
8172;DHT22;4127;47.908;10.850;2022-10-12T08:45:51;13.40;99.90
8172;DHT22;4127;47.908;10.850;2022-10-12T08:48:29;13.30;99.90
8172;DHT22;4127;47.908;10.850;2022-10-12T08:51:02;13.50;99.90
8172;DHT22;4127;47.908;10.850;2022-10-12T08:55:58;13.70;99.90
8172;DHT22;4127;47.908;10.850;2022-10-12T08:58:32;13.70;99.90
8172;DHT22;4127;47.908;10.850;2022-10-12T09:06:28;14.00;99.90
8172;DHT22;4127;47.908;10.850;2022-10-12T09:14:30;13.80;99.90
8172;DHT22;4127;47.908;10.850;2022-10-12T09:16:59;13.80;99.90
8172;DHT22;4127;47.908;10.850;2022-10-12T09:19:31;13.80;99.90
8172;DHT22;4127;47.908;10.850;2022-10-12T09:22:01;13.80;99.90
8172;DHT22;4127;47.908;10.850;2022-10-12T09:24:34;13.90;99.90
8172;DHT22;4127;47.908;10.850;2022-10-12T09:27:12;14.10;99.90
8172;DHT22;4127;47.908;10.850;2022-10-12T09:29:40;14.00;99.90
8172;DHT22;4127;47.908;10.850;2022-10-12T09:35:12;14.10;99.90
8172;DHT22;4127;47.908;10.850;2022-10-12T09:37:39;14.00;99.90
8172;DHT22;4127;47.908;10.850;2022-10-12T09:40:25;14.10;99.90
8172;DHT22;4127;47.908;10.850;2022-10-12T09:42:53;14.20;99.90
8172;DHT22;4127;47.908;10.850;2022-10-12T09:45:21;14.30;99.90
8172;DHT22;4127;47.908;10.850;2022-10-12T09:48:08;14.20;99.90
8172;DHT22;4127;47.908;10.850;2022-10-12T09:50:40;14.20;99.90
8172;DHT22;4127;47.908;10.850;2022-10-12T09:53:36;14.30;99.90
8172;DHT22;4127;47.908;10.850;2022-10-12T09:56:07;14.00;99.90
8172;DHT22;4127;47.908;10.850;2022-10-12T09:58:50;14.00;99.90
8172;DHT22;4127;47.908;10.850;2022-10-12T10:01:22;14.10;99.90
8172;DHT22;4127;47.908;10.850;2022-10-12T10:04:06;14.10;99.90
8172;DHT22;4127;47.908;10.850;2022-10-12T10:06:39;14.10;99.90
8172;DHT22;4127;47.908;10.850;2022-10-12T10:11:56;14.30;99.90
8172;DHT22;4127;47.908;10.850;2022-10-12T10:14:23;14.50;99.90
8172;DHT22;4127;47.908;10.850;2022-10-12T10:16:51;14.50;99.90
8172;DHT22;4127;47.908;10.850;2022-10-12T10:19:21;14.60;99.90
8172;DHT22;4127;47.908;10.850;2022-10-12T10:21:52;14.80;99.90
8172;DHT22;4127;47.908;10.850;2022-10-12T10:24:37;15.00;99.90
8172;DHT22;4127;47.908;10.850;2022-10-12T10:27:06;14.80;99.90
8172;DHT22;4127;47.908;10.850;2022-10-12T10:29:40;14.70;99.90
8172;DHT22;4127;47.908;10.850;2022-10-12T10:32:20;14.60;99.90
8172;DHT22;4127;47.908;10.850;2022-10-12T10:35:11;14.90;99.90
8172;DHT22;4127;47.908;10.850;2022-10-12T10:37:44;15.00;99.90
8172;DHT22;4127;47.908;10.850;2022-10-12T10:40:31;15.00;99.90
8172;DHT22;4127;47.908;10.850;2022-10-12T10:43:05;15.10;99.90
8172;DHT22;4127;47.908;10.850;2022-10-12T10:48:07;15.20;99.90
8172;DHT22;4127;47.908;10.850;2022-10-12T10:50:37;15.30;99.90
8172;DHT22;4127;47.908;10.850;2022-10-12T10:53:17;15.30;99.90
8172;DHT22;4127;47.908;10.850;2022-10-12T10:56:10;15.30;99.90
8172;DHT22;4127;47.908;10.850;2022-10-12T11:06:44;15.30;99.90
8172;DHT22;4127;47.908;10.850;2022-10-12T11:09:17;15.30;99.90
8172;DHT22;4127;47.908;10.850;2022-10-12T11:11:50;15.40;99.90
8172;DHT22;4127;47.908;10.850;2022-10-12T11:14:32;15.40;99.90
8172;DHT22;4127;47.908;10.850;2022-10-12T11:17:09;15.30;99.90
8172;DHT22;4127;47.908;10.850;2022-10-12T11:19:40;15.10;99.90
8172;DHT22;4127;47.908;10.850;2022-10-12T11:22:31;15.30;99.90
8172;DHT22;4127;47.908;10.850;2022-10-12T11:25:09;15.30;99.90
8172;DHT22;4127;47.908;10.850;2022-10-12T11:27:40;15.00;99.90
8172;DHT22;4127;47.908;10.850;2022-10-12T11:30:19;15.00;99.90
8172;DHT22;4127;47.908;10.850;2022-10-12T11:35:29;15.40;99.90
8172;DHT22;4127;47.908;10.850;2022-10-12T11:38:00;15.30;99.90
8172;DHT22;4127;47.908;10.850;2022-10-12T11:40:36;15.40;99.90
8172;DHT22;4127;47.908;10.850;2022-10-12T11:43:29;15.40;99.90
8172;DHT22;4127;47.908;10.850;2022-10-12T11:46:01;15.50;99.90
8172;DHT22;4127;47.908;10.850;2022-10-12T11:48:57;15.40;99.90
8172;DHT22;4127;47.908;10.850;2022-10-12T11:51:25;15.70;99.90
8172;DHT22;4127;47.908;10.850;2022-10-12T11:56:35;15.90;99.90
8172;DHT22;4127;47.908;10.850;2022-10-12T11:59:37;15.80;99.90
8172;DHT22;4127;47.908;10.850;2022-10-12T12:02:21;15.90;99.90
8172;DHT22;4127;47.908;10.850;2022-10-12T12:04:49;16.00;99.90
8172;DHT22;4127;47.908;10.850;2022-10-12T12:19:10;15.80;99.90
8172;DHT22;4127;47.908;10.850;2022-10-12T12:27:52;15.80;99.90
8172;DHT22;4127;47.908;10.850;2022-10-12T12:30:25;16.00;99.90
8172;DHT22;4127;47.908;10.850;2022-10-12T12:32:57;16.10;99.90
8172;DHT22;4127;47.908;10.850;2022-10-12T12:35:33;16.00;99.90
8172;DHT22;4127;47.908;10.850;2022-10-12T12:41:25;16.10;99.90
8172;DHT22;4127;47.908;10.850;2022-10-12T12:43:56;16.20;99.90
8172;DHT22;4127;47.908;10.850;2022-10-12T12:52:37;16.10;99.90
8172;DHT22;4127;47.908;10.850;2022-10-12T13:17:40;16.00;99.90
8172;DHT22;4127;47.908;10.850;2022-10-12T13:20:21;16.10;99.90
8172;DHT22;4127;47.908;10.850;2022-10-12T13:22:52;16.20;99.90
8172;DHT22;4127;47.908;10.850;2022-10-12T13:25:42;16.20;99.90
8172;DHT22;4127;47.908;10.850;2022-10-12T13:28:19;16.00;99.90
8172;DHT22;4127;47.908;10.850;2022-10-12T13:31:01;16.10;99.90
8172;DHT22;4127;47.908;10.850;2022-10-12T13:33:48;16.20;99.90
8172;DHT22;4127;47.908;10.850;2022-10-12T13:36:26;16.00;99.90
8172;DHT22;4127;47.908;10.850;2022-10-12T13:38:56;15.90;99.90
8172;DHT22;4127;47.908;10.850;2022-10-12T13:41:24;15.80;99.90
8172;DHT22;4127;47.908;10.850;2022-10-12T13:43:59;15.70;99.90
8172;DHT22;4127;47.908;10.850;2022-10-12T13:49:23;16.00;99.90
8172;DHT22;4127;47.908;10.850;2022-10-12T13:51:53;16.20;99.90
8172;DHT22;4127;47.908;10.850;2022-10-12T13:54:24;16.40;99.90
8172;DHT22;4127;47.908;10.850;2022-10-12T13:57:00;16.30;99.90
8172;DHT22;4127;47.908;10.850;2022-10-12T13:59:32;16.10;99.90
8172;DHT22;4127;47.908;10.850;2022-10-12T14:02:02;15.90;99.90
8172;DHT22;4127;47.908;10.850;2022-10-12T14:04:31;16.00;99.90
8172;DHT22;4127;47.908;10.850;2022-10-12T14:07:04;15.90;99.90
8172;DHT22;4127;47.908;10.850;2022-10-12T14:09:56;15.80;99.90
8172;DHT22;4127;47.908;10.850;2022-10-12T14:12:24;15.70;99.90
8172;DHT22;4127;47.908;10.850;2022-10-12T14:14:54;15.80;99.90
8172;DHT22;4127;47.908;10.850;2022-10-12T14:17:21;16.00;99.90
8172;DHT22;4127;47.908;10.850;2022-10-12T14:19:50;15.80;99.90
8172;DHT22;4127;47.908;10.850;2022-10-12T14:22:27;15.80;99.90
8172;DHT22;4127;47.908;10.850;2022-10-12T14:27:37;15.90;99.90
8172;DHT22;4127;47.908;10.850;2022-10-12T14:30:29;15.90;99.90
8172;DHT22;4127;47.908;10.850;2022-10-12T14:35:42;15.80;99.90
8172;DHT22;4127;47.908;10.850;2022-10-12T14:41:37;15.60;99.90
8172;DHT22;4127;47.908;10.850;2022-10-12T14:46:38;15.40;99.90
8172;DHT22;4127;47.908;10.850;2022-10-12T14:49:18;15.40;99.90
8172;DHT22;4127;47.908;10.850;2022-10-12T14:51:47;15.20;99.90
8172;DHT22;4127;47.908;10.850;2022-10-12T14:54:15;15.20;99.90
8172;DHT22;4127;47.908;10.850;2022-10-12T14:56:42;15.20;99.90
8172;DHT22;4127;47.908;10.850;2022-10-12T14:59:08;15.10;99.90
8172;DHT22;4127;47.908;10.850;2022-10-12T15:01:35;15.20;99.90
8172;DHT22;4127;47.908;10.850;2022-10-12T15:04:11;15.20;99.90
8172;DHT22;4127;47.908;10.850;2022-10-12T15:06:38;15.30;99.90
8172;DHT22;4127;47.908;10.850;2022-10-12T15:09:05;15.30;99.90
8172;DHT22;4127;47.908;10.850;2022-10-12T15:11:32;15.30;99.90
8172;DHT22;4127;47.908;10.850;2022-10-12T15:13:59;15.30;99.90
8172;DHT22;4127;47.908;10.850;2022-10-12T15:16:27;15.30;99.90
8172;DHT22;4127;47.908;10.850;2022-10-12T15:18:54;15.30;99.90
8172;DHT22;4127;47.908;10.850;2022-10-12T15:21:21;15.20;99.90
8172;DHT22;4127;47.908;10.850;2022-10-12T15:23:47;15.10;99.90
8172;DHT22;4127;47.908;10.850;2022-10-12T15:26:16;15.00;99.90
8172;DHT22;4127;47.908;10.850;2022-10-12T15:28:43;15.00;99.90
8172;DHT22;4127;47.908;10.850;2022-10-12T15:31:14;15.00;99.90
8172;DHT22;4127;47.908;10.850;2022-10-12T15:33:44;15.00;99.90
8172;DHT22;4127;47.908;10.850;2022-10-12T15:36:11;14.90;99.90
8172;DHT22;4127;47.908;10.850;2022-10-12T15:38:37;14.90;99.90
8172;DHT22;4127;47.908;10.850;2022-10-12T15:41:05;14.80;99.90
8172;DHT22;4127;47.908;10.850;2022-10-12T15:43:32;14.90;99.90
8172;DHT22;4127;47.908;10.850;2022-10-12T15:46:03;14.90;99.90
8172;DHT22;4127;47.908;10.850;2022-10-12T15:48:30;14.80;99.90
8172;DHT22;4127;47.908;10.850;2022-10-12T15:50:57;14.80;99.90
8172;DHT22;4127;47.908;10.850;2022-10-12T15:53:24;14.70;99.90
8172;DHT22;4127;47.908;10.850;2022-10-12T15:55:53;14.60;99.90
8172;DHT22;4127;47.908;10.850;2022-10-12T15:58:20;14.60;99.90
8172;DHT22;4127;47.908;10.850;2022-10-12T16:00:47;14.60;99.90
8172;DHT22;4127;47.908;10.850;2022-10-12T16:03:15;14.60;99.90
8172;DHT22;4127;47.908;10.850;2022-10-12T16:05:49;14.60;99.90
8172;DHT22;4127;47.908;10.850;2022-10-12T16:08:16;14.70;99.90
8172;DHT22;4127;47.908;10.850;2022-10-12T16:10:43;14.60;99.90
8172;DHT22;4127;47.908;10.850;2022-10-12T16:13:12;14.50;99.90
8172;DHT22;4127;47.908;10.850;2022-10-12T16:15:40;14.60;99.90
8172;DHT22;4127;47.908;10.850;2022-10-12T16:18:07;14.70;99.90
8172;DHT22;4127;47.908;10.850;2022-10-12T16:20:36;14.80;99.90
8172;DHT22;4127;47.908;10.850;2022-10-12T16:23:10;14.90;99.90
8172;DHT22;4127;47.908;10.850;2022-10-12T16:25:38;14.90;99.90
8172;DHT22;4127;47.908;10.850;2022-10-12T16:28:05;15.10;99.90
8172;DHT22;4127;47.908;10.850;2022-10-12T16:30:32;15.10;99.90
8172;DHT22;4127;47.908;10.850;2022-10-12T16:32:58;15.10;99.90
8172;DHT22;4127;47.908;10.850;2022-10-12T16:35:25;15.20;99.90
8172;DHT22;4127;47.908;10.850;2022-10-12T16:37:52;15.20;99.90
8172;DHT22;4127;47.908;10.850;2022-10-12T16:40:19;15.20;99.90
8172;DHT22;4127;47.908;10.850;2022-10-12T16:42:50;15.20;99.90
8172;DHT22;4127;47.908;10.850;2022-10-12T16:45:22;15.20;99.90
8172;DHT22;4127;47.908;10.850;2022-10-12T16:47:49;15.20;99.90
8172;DHT22;4127;47.908;10.850;2022-10-12T16:50:17;15.10;99.90
8172;DHT22;4127;47.908;10.850;2022-10-12T16:52:44;15.00;99.90
8172;DHT22;4127;47.908;10.850;2022-10-12T16:55:11;15.00;99.90
8172;DHT22;4127;47.908;10.850;2022-10-12T16:57:38;14.90;99.90
8172;DHT22;4127;47.908;10.850;2022-10-12T17:00:06;14.90;99.90
8172;DHT22;4127;47.908;10.850;2022-10-12T17:02:34;14.90;99.90
8172;DHT22;4127;47.908;10.850;2022-10-12T17:05:00;14.80;99.90
8172;DHT22;4127;47.908;10.850;2022-10-12T17:07:27;14.80;99.90
8172;DHT22;4127;47.908;10.850;2022-10-12T17:09:54;14.70;99.90
8172;DHT22;4127;47.908;10.850;2022-10-12T17:12:22;14.60;99.90
8172;DHT22;4127;47.908;10.850;2022-10-12T17:14:50;14.60;99.90
8172;DHT22;4127;47.908;10.850;2022-10-12T17:17:17;14.50;99.90
8172;DHT22;4127;47.908;10.850;2022-10-12T17:19:45;14.40;99.90
8172;DHT22;4127;47.908;10.850;2022-10-12T17:22:12;14.40;99.90
8172;DHT22;4127;47.908;10.850;2022-10-12T17:24:41;14.40;99.90
8172;DHT22;4127;47.908;10.850;2022-10-12T17:27:09;14.30;99.90
8172;DHT22;4127;47.908;10.850;2022-10-12T17:29:37;14.20;99.90
8172;DHT22;4127;47.908;10.850;2022-10-12T17:32:10;14.20;99.90
8172;DHT22;4127;47.908;10.850;2022-10-12T17:34:39;14.10;99.90
8172;DHT22;4127;47.908;10.850;2022-10-12T17:37:08;14.10;99.90
8172;DHT22;4127;47.908;10.850;2022-10-12T17:39:43;14.10;99.90
8172;DHT22;4127;47.908;10.850;2022-10-12T17:42:11;14.00;99.90
8172;DHT22;4127;47.908;10.850;2022-10-12T17:44:38;14.00;99.90
8172;DHT22;4127;47.908;10.850;2022-10-12T17:47:05;13.90;99.90
8172;DHT22;4127;47.908;10.850;2022-10-12T17:49:31;13.80;99.90
8172;DHT22;4127;47.908;10.850;2022-10-12T17:51:58;13.70;99.90
8172;DHT22;4127;47.908;10.850;2022-10-12T17:54:25;13.60;99.90
8172;DHT22;4127;47.908;10.850;2022-10-12T17:56:53;13.50;99.90
8172;DHT22;4127;47.908;10.850;2022-10-12T17:59:21;13.50;99.90
8172;DHT22;4127;47.908;10.850;2022-10-12T18:01:49;13.40;99.90
8172;DHT22;4127;47.908;10.850;2022-10-12T18:04:16;13.30;99.90
8172;DHT22;4127;47.908;10.850;2022-10-12T18:06:43;13.20;99.90
8172;DHT22;4127;47.908;10.850;2022-10-12T18:09:11;13.10;99.90
8172;DHT22;4127;47.908;10.850;2022-10-12T18:11:38;13.00;99.90
8172;DHT22;4127;47.908;10.850;2022-10-12T18:14:07;12.80;99.90